Time;durP1;ratioP1;P1;durP2;ratioP2;P2;SDS_P1;SDS_P2;PMS_P1;PMS_P2;Temp;Humidity;BMP_temperature;BMP_pressure;BME280_temperature;BME280_humidity;BME280_pressure;Samples;Min_cycle;Max_cycle;Signal;HPM_P1;HPM_P2
2022/10/10 00:00:28;0.00;0.00;0.62;0.00;0.00;0.62;2.60;1.20;;;28.80;25.20;;;;;;2265089;61;20396;-63
2022/10/10 00:03:13;0.00;0.00;0.62;0.00;0.00;0.62;1.67;1.17;;;28.80;25.20;;;;;;2389954;53;20614;-64
2022/10/10 00:05:58;0.00;0.00;0.62;0.00;0.00;0.62;2.47;1.30;;;28.80;25.20;;;;;;2265120;61;20369;-64
2022/10/10 00:08:43;0.00;0.00;0.62;0.00;0.00;0.62;1.50;0.93;;;28.80;25.20;;;;;;2264988;61;20411;-63
2022/10/10 00:11:30;0.00;0.00;0.62;0.00;0.00;0.62;1.80;1.00;;;28.80;25.20;;;;;;2265191;61;20451;-63
2022/10/10 00:14:15;0.00;0.00;0.62;0.00;0.00;0.62;1.83;1.13;;;28.80;25.20;;;;;;2600607;45;20369;-63
2022/10/10 00:17:00;0.00;0.00;0.62;0.00;0.00;0.62;1.47;0.93;;;28.80;25.20;;;;;;2266160;61;20743;-64
2022/10/10 00:19:44;0.00;0.00;0.62;0.00;0.00;0.62;2.20;1.23;;;28.70;25.20;;;;;;2268922;61;20686;-65
2022/10/10 00:22:29;0.00;0.00;0.62;0.00;0.00;0.62;1.60;1.10;;;28.70;25.20;;;;;;2399865;53;20389;-65
2022/10/10 00:25:17;0.00;0.00;0.62;0.00;0.00;0.62;2.03;1.10;;;28.70;25.20;;;;;;2268586;61;20373;-63
2022/10/10 00:28:04;0.00;0.00;0.62;0.00;0.00;0.62;1.50;0.90;;;28.80;25.30;;;;;;2264724;61;20408;-63
2022/10/10 00:30:48;0.00;0.00;0.62;0.00;0.00;0.62;1.50;0.83;;;28.80;25.30;;;;;;2265101;61;20391;-63
2022/10/10 00:33:33;0.00;0.00;0.62;0.00;0.00;0.62;1.40;0.97;;;28.70;25.20;;;;;;2265018;61;20392;-63
2022/10/10 00:36:20;0.00;0.00;0.62;0.00;0.00;0.62;1.40;0.90;;;28.70;25.20;;;;;;2265437;61;20388;-62
2022/10/10 00:39:05;0.00;0.00;0.62;0.00;0.00;0.62;1.50;0.90;;;28.70;25.20;;;;;;2265985;61;20816;-63
2022/10/10 00:41:59;0.00;0.00;0.62;0.00;0.00;0.62;1.33;0.70;;;28.70;25.20;;;;;;2329112;53;20500;-62
2022/10/10 00:45:20;0.00;0.00;0.62;0.00;0.00;0.62;1.80;0.90;;;28.70;25.30;;;;;;2265771;61;20411;-62
2022/10/10 00:48:08;0.00;0.00;0.62;0.00;0.00;0.62;1.60;1.00;;;28.70;25.30;;;;;;2265702;61;20729;-63
2022/10/10 00:51:02;0.00;0.00;0.62;0.00;0.00;0.62;1.83;1.10;;;28.70;25.20;;;;;;2265775;61;20419;-63
2022/10/10 00:53:51;0.00;0.00;0.62;0.00;0.00;0.62;1.60;1.10;;;28.70;25.30;;;;;;2267323;61;20416;-63
2022/10/10 00:56:42;0.00;0.00;0.62;0.00;0.00;0.62;1.43;0.97;;;28.70;25.20;;;;;;2395244;53;20372;-63
2022/10/10 00:59:31;0.00;0.00;0.62;0.00;0.00;0.62;1.50;0.90;;;28.70;25.80;;;;;;2269570;61;20380;-63
2022/10/10 01:02:17;0.00;0.00;0.62;0.00;0.00;0.62;1.43;0.70;;;28.70;25.80;;;;;;2269940;61;20364;-62
2022/10/10 01:05:03;0.00;0.00;0.62;0.00;0.00;0.62;1.50;0.90;;;28.60;25.20;;;;;;2269452;61;20591;-62
2022/10/10 01:07:48;0.00;0.00;0.62;0.00;0.00;0.62;1.50;0.90;;;28.60;25.20;;;;;;2407298;53;20779;-62
2022/10/10 01:10:41;0.00;0.00;0.62;0.00;0.00;0.62;1.60;0.90;;;28.60;25.20;;;;;;2269828;61;20388;-63
2022/10/10 01:13:33;0.00;0.00;0.62;0.00;0.00;0.62;1.40;0.80;;;28.70;25.30;;;;;;2269398;61;20580;-63
2022/10/10 01:16:26;0.00;0.00;0.62;0.00;0.00;0.62;1.43;0.90;;;28.60;25.20;;;;;;2270165;61;20371;-63
2022/10/10 01:19:46;0.00;0.00;0.62;0.00;0.00;0.62;1.40;0.80;;;28.70;25.30;;;;;;2404999;53;20413;-63
2022/10/10 01:22:44;0.00;0.00;0.62;0.00;0.00;0.62;1.40;0.80;;;28.60;25.80;;;;;;2502440;45;20380;-62
2022/10/10 01:25:37;0.00;0.00;0.62;0.00;0.00;0.62;1.50;1.00;;;28.60;25.20;;;;;;2265481;61;20369;-62
2022/10/10 01:28:38;0.00;0.00;0.62;0.00;0.00;0.62;1.50;0.80;;;28.60;25.30;;;;;;2267824;61;20381;-62
2022/10/10 01:31:27;0.00;0.00;0.62;0.00;0.00;0.62;1.50;1.00;;;28.60;25.20;;;;;;2267729;61;20381;-63
2022/10/10 01:34:21;0.00;0.00;0.62;0.00;0.00;0.62;1.77;1.03;;;28.60;25.20;;;;;;2268982;61;20368;-63
2022/10/10 01:37:16;0.00;0.00;0.62;0.00;0.00;0.62;1.33;0.80;;;28.60;25.30;;;;;;2401719;53;20384;-63
2022/10/10 01:40:08;0.00;0.00;0.62;0.00;0.00;0.62;2.13;1.13;;;28.60;25.30;;;;;;2265228;61;20439;-63
2022/10/10 01:42:56;0.00;0.00;0.62;0.00;0.00;0.62;1.60;1.10;;;28.60;25.20;;;;;;2303009;61;20714;-63
2022/10/10 01:45:48;0.00;0.00;0.62;0.00;0.00;0.62;1.50;0.90;;;28.60;25.20;;;;;;2268488;61;20402;-63
2022/10/10 01:48:33;0.00;0.00;0.62;0.00;0.00;0.62;2.00;0.93;;;28.60;25.30;;;;;;2266969;61;20493;-63
2022/10/10 01:51:53;0.00;0.00;0.62;0.00;0.00;0.62;1.97;1.00;;;28.60;25.30;;;;;;2266912;61;20403;-63
2022/10/10 01:54:49;0.00;0.00;0.62;0.00;0.00;0.62;1.30;0.60;;;28.50;25.20;;;;;;2265393;61;20594;-64
2022/10/10 01:57:45;0.00;0.00;0.62;0.00;0.00;0.62;1.20;0.70;;;28.60;25.20;;;;;;2265363;61;20365;-64
2022/10/10 02:00:35;0.00;0.00;0.62;0.00;0.00;0.62;1.57;0.87;;;28.50;25.20;;;;;;2265790;61;20689;-63
2022/10/10 02:03:26;0.00;0.00;0.62;0.00;0.00;0.62;1.40;0.70;;;28.50;25.20;;;;;;2265077;61;20384;-63
2022/10/10 02:06:24;0.00;0.00;0.62;0.00;0.00;0.62;1.60;0.80;;;28.60;25.30;;;;;;2521859;45;20765;-63
2022/10/10 02:09:15;0.00;0.00;0.62;0.00;0.00;0.62;1.57;0.80;;;28.50;25.20;;;;;;2265089;61;20403;-64
2022/10/10 02:12:01;0.00;0.00;0.62;0.00;0.00;0.62;1.47;0.90;;;28.50;25.20;;;;;;2268041;61;20554;-63
2022/10/10 02:14:51;0.00;0.00;0.62;0.00;0.00;0.62;1.43;0.87;;;28.50;25.20;;;;;;2267199;61;20369;-63
2022/10/10 02:17:38;0.00;0.00;0.62;0.00;0.00;0.62;1.40;0.80;;;28.50;25.20;;;;;;2360108;53;20442;-63
2022/10/10 02:20:27;0.00;0.00;0.62;0.00;0.00;0.62;1.73;0.87;;;28.50;25.20;;;;;;2265022;61;20393;-63
2022/10/10 02:23:16;0.00;0.00;0.62;0.00;0.00;0.62;1.40;0.80;;;28.50;25.20;;;;;;2265786;61;20369;-63
2022/10/10 02:26:03;0.00;0.00;0.62;0.00;0.00;0.62;2.13;0.97;;;28.50;25.20;;;;;;2266679;61;20724;-63
2022/10/10 02:28:55;0.00;0.00;0.62;0.00;0.00;0.62;1.80;0.90;;;28.50;25.20;;;;;;2414477;53;20368;-64
2022/10/10 02:31:46;0.00;0.00;0.62;0.00;0.00;0.62;1.40;0.80;;;28.50;25.20;;;;;;2268256;61;20432;-64
2022/10/10 02:34:38;0.00;0.00;0.62;0.00;0.00;0.62;1.40;0.80;;;28.50;25.20;;;;;;2265134;61;20369;-64
2022/10/10 02:37:26;0.00;0.00;0.62;0.00;0.00;0.62;1.40;0.80;;;28.50;25.30;;;;;;2267360;61;20645;-64
2022/10/10 02:40:14;0.00;0.00;0.62;0.00;0.00;0.62;1.50;0.90;;;28.50;25.20;;;;;;2453352;53;20468;-63
2022/10/10 02:43:02;0.00;0.00;0.62;0.00;0.00;0.62;1.83;0.93;;;28.50;25.10;;;;;;2291270;61;20407;-63
2022/10/10 02:45:47;0.00;0.00;0.62;0.00;0.00;0.62;2.97;1.30;;;28.40;25.00;;;;;;2267664;61;20367;-63
2022/10/10 02:48:33;0.00;0.00;0.62;0.00;0.00;0.62;1.50;0.97;;;28.40;25.00;;;;;;2267037;61;20363;-63
2022/10/10 02:51:21;0.00;0.00;0.62;0.00;0.00;0.62;1.83;1.10;;;28.40;25.00;;;;;;2268242;61;20609;-62
2022/10/10 02:54:07;0.00;0.00;0.62;0.00;0.00;0.62;1.50;0.90;;;28.40;25.00;;;;;;2265372;61;20365;-62
2022/10/10 02:56:53;0.00;0.00;0.62;0.00;0.00;0.62;1.30;0.67;;;28.40;25.00;;;;;;2264963;61;20364;-62
2022/10/10 02:59:37;0.00;0.00;0.62;0.00;0.00;0.62;1.50;0.90;;;28.40;24.90;;;;;;2413636;53;20431;-63
2022/10/10 03:02:22;0.00;0.00;0.62;0.00;0.00;0.62;2.40;1.17;;;28.40;24.90;;;;;;2265134;61;20368;-63
2022/10/10 03:05:08;0.00;0.00;0.62;0.00;0.00;0.62;1.30;0.70;;;28.30;24.90;;;;;;2265067;61;20372;-63
2022/10/10 03:07:53;0.00;0.00;0.62;0.00;0.00;0.62;1.37;0.73;;;28.30;24.90;;;;;;2399964;53;20360;-63
2022/10/10 03:10:39;0.00;0.00;0.62;0.00;0.00;0.62;1.50;0.77;;;28.30;24.90;;;;;;2265026;61;20460;-63
2022/10/10 03:13:24;0.00;0.00;0.62;0.00;0.00;0.62;1.97;1.00;;;28.20;24.80;;;;;;2265283;61;20365;-62
2022/10/10 03:16:10;0.00;0.00;0.62;0.00;0.00;0.62;1.80;1.00;;;28.20;24.80;;;;;;2265606;61;20391;-63
2022/10/10 03:18:54;0.00;0.00;0.62;0.00;0.00;0.62;1.50;0.80;;;28.30;24.80;;;;;;2274288;61;20356;-63
2022/10/10 03:21:41;0.00;0.00;0.62;0.00;0.00;0.62;1.40;0.80;;;28.20;24.80;;;;;;2265319;61;20452;-63
2022/10/10 03:24:26;0.00;0.00;0.62;0.00;0.00;0.62;1.40;0.70;;;28.20;25.30;;;;;;2265280;61;20442;-63
2022/10/10 03:27:12;0.00;0.00;0.62;0.00;0.00;0.62;1.40;0.80;;;28.20;24.80;;;;;;2264872;61;20748;-63
2022/10/10 03:29:56;0.00;0.00;0.62;0.00;0.00;0.62;1.43;0.90;;;28.20;25.30;;;;;;2268521;61;20406;-63
2022/10/10 03:32:41;0.00;0.00;0.62;0.00;0.00;0.62;1.50;0.80;;;28.20;24.80;;;;;;2264897;61;20389;-63
2022/10/10 03:35:29;0.00;0.00;0.62;0.00;0.00;0.62;1.70;0.80;;;28.10;24.80;;;;;;2407498;53;20404;-63
2022/10/10 03:38:14;0.00;0.00;0.62;0.00;0.00;0.62;1.53;0.83;;;28.10;24.80;;;;;;2265348;61;20376;-63
2022/10/10 03:40:59;0.00;0.00;0.62;0.00;0.00;0.62;1.50;0.77;;;28.10;24.80;;;;;;2265817;61;20629;-63
2022/10/10 03:43:45;0.00;0.00;0.62;0.00;0.00;0.62;1.43;0.80;;;28.10;24.80;;;;;;2388603;53;20437;-63
2022/10/10 03:46:30;0.00;0.00;0.62;0.00;0.00;0.62;1.63;0.90;;;28.10;24.80;;;;;;2267160;61;20372;-63
2022/10/10 03:49:14;0.00;0.00;0.62;0.00;0.00;0.62;1.60;0.70;;;28.10;24.80;;;;;;2264810;61;20384;-62
2022/10/10 03:52:00;0.00;0.00;0.62;0.00;0.00;0.62;1.50;0.80;;;28.10;24.80;;;;;;2265664;61;20388;-63
2022/10/10 03:54:45;0.00;0.00;0.62;0.00;0.00;0.62;1.67;0.80;;;28.00;24.70;;;;;;2264625;61;20421;-63
2022/10/10 03:57:29;0.00;0.00;0.62;0.00;0.00;0.62;1.40;0.80;;;28.00;24.80;;;;;;2265122;61;20361;-62
2022/10/10 04:00:15;0.00;0.00;0.62;0.00;0.00;0.62;1.60;1.00;;;28.00;24.80;;;;;;2264902;61;20617;-63
2022/10/10 04:03:05;0.00;0.00;0.62;0.00;0.00;0.62;1.50;0.80;;;28.00;24.80;;;;;;2502295;45;20418;-63
2022/10/10 04:05:50;0.00;0.00;0.62;0.00;0.00;0.62;1.43;0.80;;;28.00;24.80;;;;;;2269357;61;20402;-63
2022/10/10 04:08:38;0.00;0.00;0.62;0.00;0.00;0.62;1.40;0.70;;;28.00;24.80;;;;;;2266267;61;20398;-62
2022/10/10 04:11:22;0.00;0.00;0.62;0.00;0.00;0.62;1.60;0.80;;;27.90;24.80;;;;;;2265565;61;20424;-63
2022/10/10 04:14:07;0.00;0.00;0.62;0.00;0.00;0.62;1.67;0.80;;;27.90;24.80;;;;;;2265960;61;20585;-62
2022/10/10 04:16:53;0.00;0.00;0.62;0.00;0.00;0.62;1.20;0.70;;;27.90;24.80;;;;;;2266311;61;20371;-63
2022/10/10 04:19:38;0.00;0.00;0.62;0.00;0.00;0.62;1.70;0.90;;;27.90;24.80;;;;;;2267373;61;20384;-63
2022/10/10 04:22:22;0.00;0.00;0.62;0.00;0.00;0.62;1.60;0.90;;;27.90;24.80;;;;;;2411372;53;20463;-63
2022/10/10 04:25:08;0.00;0.00;0.62;0.00;0.00;0.62;1.60;0.93;;;27.90;24.80;;;;;;2265481;61;20743;-63
2022/10/10 04:27:53;0.00;0.00;0.62;0.00;0.00;0.62;1.30;0.70;;;27.80;24.70;;;;;;2268568;61;20382;-63
2022/10/10 04:30:38;0.00;0.00;0.62;0.00;0.00;0.62;1.40;0.70;;;27.80;24.80;;;;;;2399083;53;20376;-62
2022/10/10 04:33:24;0.00;0.00;0.62;0.00;0.00;0.62;1.70;0.93;;;27.80;24.80;;;;;;2265404;61;20392;-63
2022/10/10 04:36:08;0.00;0.00;0.62;0.00;0.00;0.62;1.50;0.70;;;27.80;24.80;;;;;;2266058;61;20368;-63
2022/10/10 04:38:53;0.00;0.00;0.62;0.00;0.00;0.62;1.30;0.70;;;27.80;24.80;;;;;;2387833;53;20372;-63
2022/10/10 04:41:37;0.00;0.00;0.62;0.00;0.00;0.62;1.37;0.70;;;27.80;24.80;;;;;;2265666;61;20492;-62
2022/10/10 04:44:22;0.00;0.00;0.62;0.00;0.00;0.62;1.30;0.73;;;27.70;24.80;;;;;;2265833;61;20775;-63
2022/10/10 04:47:07;0.00;0.00;0.62;0.00;0.00;0.62;1.53;0.80;;;27.70;24.80;;;;;;2267188;61;20368;-63
2022/10/10 04:49:53;0.00;0.00;0.62;0.00;0.00;0.62;1.50;0.80;;;27.70;24.80;;;;;;2265266;61;20377;-63
2022/10/10 04:52:37;0.00;0.00;0.62;0.00;0.00;0.62;1.23;0.70;;;27.70;24.80;;;;;;2265842;61;20369;-63
2022/10/10 04:55:22;0.00;0.00;0.62;0.00;0.00;0.62;1.20;0.70;;;27.70;24.80;;;;;;2265395;61;20589;-56
2022/10/10 04:58:07;0.00;0.00;0.62;0.00;0.00;0.62;1.60;0.80;;;27.70;24.90;;;;;;2406040;53;20387;-62
2022/10/10 05:00:52;0.00;0.00;0.62;0.00;0.00;0.62;1.40;0.80;;;27.70;24.90;;;;;;2269200;61;20802;-62
2022/10/10 05:03:37;0.00;0.00;0.62;0.00;0.00;0.62;1.50;0.70;;;27.70;24.90;;;;;;2269794;61;20418;-62
2022/10/10 05:06:23;0.00;0.00;0.62;0.00;0.00;0.62;1.37;0.90;;;27.60;24.80;;;;;;2391350;53;20874;-62
2022/10/10 05:09:11;0.00;0.00;0.62;0.00;0.00;0.62;1.67;0.80;;;27.60;24.80;;;;;;2265294;61;20416;-62
2022/10/10 05:11:58;0.00;0.00;0.62;0.00;0.00;0.62;1.60;0.90;;;27.60;24.80;;;;;;2265835;61;20396;-62
2022/10/10 05:14:42;0.00;0.00;0.62;0.00;0.00;0.62;1.30;0.70;;;27.60;24.90;;;;;;2265536;61;20755;-62
2022/10/10 05:17:29;0.00;0.00;0.62;0.00;0.00;0.62;1.40;0.80;;;27.60;24.90;;;;;;2266805;61;20384;-62
2022/10/10 05:20:14;0.00;0.00;0.62;0.00;0.00;0.62;2.13;1.10;;;27.60;24.90;;;;;;2269559;61;20430;-62
2022/10/10 05:23:00;0.00;0.00;0.62;0.00;0.00;0.62;2.70;0.70;;;27.60;24.90;;;;;;2269415;61;20458;-62
2022/10/10 05:25:48;0.00;0.00;0.62;0.00;0.00;0.62;1.40;0.70;;;27.60;24.90;;;;;;2557666;45;20402;-62
2022/10/10 05:28:35;0.00;0.00;0.62;0.00;0.00;0.62;1.40;0.90;;;27.50;24.90;;;;;;2269935;61;20377;-62
2022/10/10 05:31:19;0.00;0.00;0.62;0.00;0.00;0.62;1.50;0.80;;;27.50;24.90;;;;;;2269107;61;20498;-62
2022/10/10 05:34:04;0.00;0.00;0.62;0.00;0.00;0.62;1.60;0.90;;;27.50;24.90;;;;;;2269708;61;20360;-62
2022/10/10 05:36:48;0.00;0.00;0.62;0.00;0.00;0.62;1.30;0.70;;;27.50;24.90;;;;;;2265662;61;20495;-62
2022/10/10 05:39:34;0.00;0.00;0.62;0.00;0.00;0.62;1.47;0.87;;;27.50;24.90;;;;;;2264913;61;20453;-62
2022/10/10 05:42:19;0.00;0.00;0.62;0.00;0.00;0.62;1.90;1.03;;;27.50;24.90;;;;;;2266777;61;20744;-62
2022/10/10 05:45:05;0.00;0.00;0.62;0.00;0.00;0.62;1.73;1.10;;;27.50;24.90;;;;;;2411374;53;20394;-62
2022/10/10 05:47:49;0.00;0.00;0.62;0.00;0.00;0.62;3.10;1.50;;;27.50;24.90;;;;;;2265790;61;20365;-62
2022/10/10 05:50:38;0.00;0.00;0.62;0.00;0.00;0.62;2.17;1.43;;;27.40;24.90;;;;;;2265834;61;20586;-63
2022/10/10 05:53:24;0.00;0.00;0.62;0.00;0.00;0.62;2.07;1.43;;;27.40;24.90;;;;;;2312880;53;20360;-67
2022/10/10 05:56:10;0.00;0.00;0.62;0.00;0.00;0.62;1.93;1.37;;;27.40;24.90;;;;;;2265650;61;20722;-67
2022/10/10 05:58:55;0.00;0.00;0.62;0.00;0.00;0.62;2.70;1.73;;;27.40;24.90;;;;;;2265420;61;20717;-67
2022/10/10 06:01:40;0.00;0.00;0.62;0.00;0.00;0.62;2.27;1.60;;;27.40;25.00;;;;;;2265161;61;20812;-68
2022/10/10 06:04:27;0.00;0.00;0.62;0.00;0.00;0.62;3.80;2.60;;;27.40;24.90;;;;;;2416447;53;20457;-66
2022/10/10 06:07:12;0.00;0.00;0.62;0.00;0.00;0.62;3.00;1.93;;;27.40;25.00;;;;;;2265396;61;20447;-66
2022/10/10 06:09:56;0.00;0.00;0.62;0.00;0.00;0.62;3.20;2.33;;;27.40;25.50;;;;;;2265273;61;20361;-62
2022/10/10 06:12:46;0.00;0.00;0.62;0.00;0.00;0.62;3.40;2.50;;;27.40;25.00;;;;;;2395557;53;20379;-62
2022/10/10 06:15:30;0.00;0.00;0.62;0.00;0.00;0.62;2.20;1.90;;;27.40;25.00;;;;;;2264927;61;21235;-65
2022/10/10 06:18:17;0.00;0.00;0.62;0.00;0.00;0.62;3.10;2.20;;;27.30;25.00;;;;;;2265996;61;20396;-62
2022/10/10 06:21:06;0.00;0.00;0.62;0.00;0.00;0.62;3.80;1.93;;;27.30;25.00;;;;;;2265420;61;20384;-64
2022/10/10 06:23:51;0.00;0.00;0.62;0.00;0.00;0.62;3.33;2.50;;;27.30;25.00;;;;;;2265175;61;20492;-64
2022/10/10 06:26:36;0.00;0.00;0.62;0.00;0.00;0.62;2.70;2.30;;;27.30;25.00;;;;;;2265435;61;20387;-65
2022/10/10 06:29:22;0.00;0.00;0.62;0.00;0.00;0.62;2.97;2.17;;;27.30;25.00;;;;;;2265363;61;20369;-64
2022/10/10 06:32:06;0.00;0.00;0.62;0.00;0.00;0.62;2.70;2.10;;;27.30;25.00;;;;;;2590158;45;20368;-67
2022/10/10 06:34:52;0.00;0.00;0.62;0.00;0.00;0.62;2.53;2.10;;;27.30;25.00;;;;;;2269649;61;20372;-67
2022/10/10 06:37:37;0.00;0.00;0.62;0.00;0.00;0.62;2.73;2.00;;;27.30;25.00;;;;;;2268863;61;20380;-68
2022/10/10 06:40:22;0.00;0.00;0.62;0.00;0.00;0.62;3.50;2.10;;;27.30;25.10;;;;;;2396349;53;20654;-66
2022/10/10 06:43:10;0.00;0.00;0.62;0.00;0.00;0.62;3.83;2.40;;;27.30;25.10;;;;;;2266395;61;20365;-65
2022/10/10 06:45:57;0.00;0.00;0.62;0.00;0.00;0.62;3.10;2.20;;;27.30;25.10;;;;;;2267461;61;20363;-65
2022/10/10 06:48:42;0.00;0.00;0.62;0.00;0.00;0.62;3.00;2.10;;;27.30;25.10;;;;;;2265199;61;20373;-64
2022/10/10 06:51:27;0.00;0.00;0.62;0.00;0.00;0.62;3.80;1.83;;;27.30;25.10;;;;;;2419262;53;20437;-71
2022/10/10 06:54:11;0.00;0.00;0.62;0.00;0.00;0.62;2.70;1.83;;;27.30;25.10;;;;;;2268943;61;20387;-64
2022/10/10 06:56:57;0.00;0.00;0.62;0.00;0.00;0.62;3.07;2.30;;;27.30;25.10;;;;;;2269614;61;20571;-66
2022/10/10 06:59:41;0.00;0.00;0.62;0.00;0.00;0.62;2.63;1.90;;;27.30;25.20;;;;;;2406413;53;20628;-62
2022/10/10 07:02:27;0.00;0.00;0.62;0.00;0.00;0.62;2.83;2.27;;;27.30;25.20;;;;;;2269191;61;20368;-66
2022/10/10 07:05:15;0.00;0.00;0.62;0.00;0.00;0.62;2.73;1.90;;;27.30;25.20;;;;;;2269304;61;20368;-67
2022/10/10 07:08:00;0.00;0.00;0.62;0.00;0.00;0.62;2.70;1.87;;;27.20;25.20;;;;;;2266857;61;20365;-62
2022/10/10 07:10:46;0.00;0.00;0.62;0.00;0.00;0.62;3.07;1.93;;;27.30;25.20;;;;;;2265270;61;20388;-62
2022/10/10 07:13:30;0.00;0.00;0.62;0.00;0.00;0.62;2.83;1.90;;;27.30;25.20;;;;;;2265137;61;20388;-63
2022/10/10 07:16:17;0.00;0.00;0.62;0.00;0.00;0.62;2.23;1.83;;;27.30;25.20;;;;;;2264857;61;20480;-67
2022/10/10 07:19:04;0.00;0.00;0.62;0.00;0.00;0.62;2.80;1.90;;;27.30;25.20;;;;;;2268370;61;20377;-64
2022/10/10 07:21:49;0.00;0.00;0.62;0.00;0.00;0.62;2.73;1.80;;;27.30;25.20;;;;;;2267456;61;20388;-64
2022/10/10 07:24:35;0.00;0.00;0.62;0.00;0.00;0.62;2.47;1.77;;;27.30;25.30;;;;;;2267708;61;20377;-64
2022/10/10 07:27:20;0.00;0.00;0.62;0.00;0.00;0.62;2.80;1.87;;;27.30;25.20;;;;;;2360451;53;20372;-61
2022/10/10 07:30:06;0.00;0.00;0.62;0.00;0.00;0.62;2.40;1.60;;;27.30;25.30;;;;;;2268708;61;20596;-64
2022/10/10 07:32:52;0.00;0.00;0.62;0.00;0.00;0.62;3.00;1.87;;;27.30;25.30;;;;;;2269201;61;20367;-67
2022/10/10 07:35:38;0.00;0.00;0.62;0.00;0.00;0.62;3.47;1.90;;;27.30;25.30;;;;;;2266917;61;20484;-64
2022/10/10 07:38:25;0.00;0.00;0.62;0.00;0.00;0.62;2.60;1.73;;;27.30;25.30;;;;;;2268150;61;20372;-66
2022/10/10 07:41:12;0.00;0.00;0.62;0.00;0.00;0.62;2.67;1.87;;;27.30;25.30;;;;;;2268015;61;20401;-67
2022/10/10 07:43:57;0.00;0.00;0.62;0.00;0.00;0.62;3.00;1.73;;;27.30;25.30;;;;;;2264640;61;20472;-64
2022/10/10 07:46:42;0.00;0.00;0.62;0.00;0.00;0.62;2.50;1.90;;;27.30;25.30;;;;;;2297513;61;20745;-63
2022/10/10 07:49:26;0.00;0.00;0.62;0.00;0.00;0.62;2.53;1.50;;;27.30;25.30;;;;;;2265008;61;20400;-65
2022/10/10 07:52:12;0.00;0.00;0.62;0.00;0.00;0.62;2.10;1.50;;;27.30;25.30;;;;;;2264814;61;20472;-67
2022/10/10 07:54:57;0.00;0.00;0.62;0.00;0.00;0.62;2.07;1.43;;;27.30;25.30;;;;;;2420609;53;20368;-66
2022/10/10 07:57:41;0.00;0.00;0.62;0.00;0.00;0.62;2.40;1.60;;;27.30;25.40;;;;;;2265239;61;20426;-62
2022/10/10 08:00:26;0.00;0.00;0.62;0.00;0.00;0.62;3.37;1.93;;;27.30;25.40;;;;;;2264743;61;20397;-65
2022/10/10 08:03:11;0.00;0.00;0.62;0.00;0.00;0.62;1.90;1.50;;;27.40;25.50;;;;;;2265363;61;20369;-66
2022/10/10 08:05:56;0.00;0.00;0.62;0.00;0.00;0.62;2.20;1.57;;;27.40;25.50;;;;;;2264828;61;20439;-66
2022/10/10 08:08:43;0.00;0.00;0.62;0.00;0.00;0.62;2.00;1.47;;;27.40;25.50;;;;;;2264510;61;20373;-66
2022/10/10 08:11:28;0.00;0.00;0.62;0.00;0.00;0.62;2.03;1.57;;;27.40;26.00;;;;;;2265444;61;20384;-66
2022/10/10 08:14:13;0.00;0.00;0.62;0.00;0.00;0.62;2.70;1.90;;;27.40;25.50;;;;;;2410354;53;20520;-67
2022/10/10 08:16:57;0.00;0.00;0.62;0.00;0.00;0.62;2.17;1.60;;;27.40;25.50;;;;;;2266436;61;20396;-62
2022/10/10 08:19:42;0.00;0.00;0.62;0.00;0.00;0.62;3.03;1.73;;;27.40;25.80;;;;;;2268922;61;20767;-64
2022/10/10 08:22:27;0.00;0.00;0.62;0.00;0.00;0.62;2.53;1.70;;;27.40;25.50;;;;;;2410436;53;20403;-68
2022/10/10 08:25:13;0.00;0.00;0.62;0.00;0.00;0.62;2.97;1.60;;;27.40;25.50;;;;;;2269320;61;20364;-67
2022/10/10 08:27:57;0.00;0.00;0.62;0.00;0.00;0.62;2.40;1.67;;;27.50;25.50;;;;;;2266090;61;20599;-64
2022/10/10 08:30:42;0.00;0.00;0.62;0.00;0.00;0.62;2.60;1.80;;;27.50;25.60;;;;;;2393852;53;20392;-64
2022/10/10 08:33:27;0.00;0.00;0.62;0.00;0.00;0.62;2.40;1.47;;;27.50;25.60;;;;;;2268965;61;20379;-66
2022/10/10 08:36:15;0.00;0.00;0.62;0.00;0.00;0.62;2.37;1.70;;;27.50;25.60;;;;;;2268731;61;20437;-66
2022/10/10 08:39:00;0.00;0.00;0.62;0.00;0.00;0.62;2.10;1.50;;;27.60;25.60;;;;;;2266866;61;20440;-62
2022/10/10 08:41:50;0.00;0.00;0.62;0.00;0.00;0.62;2.20;1.50;;;27.60;25.60;;;;;;2267762;61;20681;-67
2022/10/10 08:44:40;0.00;0.00;0.62;0.00;0.00;0.62;3.37;2.10;;;27.60;25.60;;;;;;2264630;61;20373;-62
2022/10/10 08:47:36;0.00;0.00;0.62;0.00;0.00;0.62;2.17;1.60;;;27.60;25.60;;;;;;2352608;53;20408;-66
2022/10/10 08:53:42;0.00;0.00;0.62;0.00;0.00;0.62;2.00;1.30;;;27.60;25.70;;;;;;2267073;61;20371;-63
2022/10/10 08:56:33;0.00;0.00;0.62;0.00;0.00;0.62;2.53;1.73;;;27.70;25.70;;;;;;2269506;61;20600;-65
2022/10/10 08:59:31;0.00;0.00;0.62;0.00;0.00;0.62;1.93;1.30;;;27.70;25.70;;;;;;2269295;61;20583;-63
2022/10/10 09:02:33;0.00;0.00;0.62;0.00;0.00;0.62;1.80;1.30;;;27.70;25.70;;;;;;2270009;61;20368;-66
2022/10/10 09:05:23;0.00;0.00;0.62;0.00;0.00;0.62;3.10;1.40;;;27.70;25.70;;;;;;2269386;61;20367;-66
2022/10/10 09:08:32;0.00;0.00;0.62;0.00;0.00;0.62;2.00;1.53;;;27.70;25.80;;;;;;2553744;45;20445;-67
2022/10/10 09:11:47;0.00;0.00;0.62;0.00;0.00;0.62;2.63;1.87;;;27.80;25.80;;;;;;2582740;45;20507;-64
2022/10/10 09:14:43;0.00;0.00;0.62;0.00;0.00;0.62;1.90;1.20;;;27.80;25.80;;;;;;2586570;45;20617;-64
2022/10/10 09:17:40;0.00;0.00;0.62;0.00;0.00;0.62;2.00;1.57;;;27.80;25.80;;;;;;2270030;61;20451;-65
2022/10/10 09:20:39;0.00;0.00;0.62;0.00;0.00;0.62;2.10;1.47;;;27.80;25.80;;;;;;2265148;61;20440;-66
2022/10/10 09:23:29;0.00;0.00;0.62;0.00;0.00;0.62;2.40;1.40;;;27.90;25.90;;;;;;2265511;61;20380;-64
2022/10/10 09:26:18;0.00;0.00;0.62;0.00;0.00;0.62;1.90;1.33;;;27.90;25.80;;;;;;2265584;61;20733;-66
2022/10/10 09:29:22;0.00;0.00;0.62;0.00;0.00;0.62;1.73;1.40;;;27.90;25.90;;;;;;2543243;45;20364;-65
2022/10/10 09:32:14;0.00;0.00;0.62;0.00;0.00;0.62;2.00;1.40;;;27.90;25.90;;;;;;2514416;45;20388;-62
2022/10/10 09:35:11;0.00;0.00;0.62;0.00;0.00;0.62;2.13;1.80;;;28.00;25.90;;;;;;2264950;61;20365;-66
2022/10/10 09:38:08;0.00;0.00;0.62;0.00;0.00;0.62;2.30;1.70;;;28.00;25.90;;;;;;2265173;61;20369;-64
2022/10/10 09:40:58;0.00;0.00;0.62;0.00;0.00;0.62;2.90;2.00;;;28.00;25.90;;;;;;2266458;61;20400;-61
2022/10/10 09:43:43;0.00;0.00;0.62;0.00;0.00;0.62;1.90;1.60;;;28.00;25.90;;;;;;2538605;45;20407;-66
2022/10/10 09:46:28;0.00;0.00;0.62;0.00;0.00;0.62;2.13;1.67;;;28.10;25.90;;;;;;2269266;61;20496;-66
2022/10/10 09:49:19;0.00;0.00;0.62;0.00;0.00;0.62;2.40;1.50;;;28.10;25.90;;;;;;2266539;61;20577;-65
2022/10/10 09:52:26;0.00;0.00;0.62;0.00;0.00;0.62;2.03;1.50;;;28.10;25.90;;;;;;2265369;61;20404;-61
2022/10/10 09:55:29;0.00;0.00;0.62;0.00;0.00;0.62;2.47;1.50;;;28.10;26.00;;;;;;2265637;61;20377;-64
2022/10/10 09:58:21;0.00;0.00;0.62;0.00;0.00;0.62;2.10;1.40;;;28.10;25.90;;;;;;2550984;45;20411;-61
2022/10/10 10:01:15;0.00;0.00;0.62;0.00;0.00;0.62;2.17;1.47;;;28.20;26.00;;;;;;2269472;61;20411;-64
2022/10/10 10:04:15;0.00;0.00;0.62;0.00;0.00;0.62;2.30;1.70;;;28.20;25.90;;;;;;2269693;61;20376;-65
2022/10/10 10:07:17;0.00;0.00;0.62;0.00;0.00;0.62;2.70;1.87;;;28.20;25.90;;;;;;2266425;61;20368;-64
2022/10/10 10:10:18;0.00;0.00;0.62;0.00;0.00;0.62;2.37;1.60;;;28.30;26.00;;;;;;2269590;61;20784;-64
2022/10/10 10:13:12;0.00;0.00;0.62;0.00;0.00;0.62;2.50;1.20;;;28.30;26.00;;;;;;2267356;61;20444;-61
2022/10/10 10:16:07;0.00;0.00;0.62;0.00;0.00;0.62;2.00;1.60;;;28.40;26.00;;;;;;2522528;45;20364;-61
2022/10/10 10:18:52;0.00;0.00;0.62;0.00;0.00;0.62;2.13;1.50;;;28.40;26.00;;;;;;2284889;58;20437;-61
2022/10/10 10:21:48;0.00;0.00;0.62;0.00;0.00;0.62;2.97;1.97;;;28.40;26.00;;;;;;2266027;61;20401;-61
2022/10/10 10:24:35;0.00;0.00;0.62;0.00;0.00;0.62;2.30;1.60;;;28.40;26.00;;;;;;2265981;61;20442;-61
2022/10/10 10:27:23;0.00;0.00;0.62;0.00;0.00;0.62;2.90;1.97;;;28.50;26.00;;;;;;2354926;53;20377;-62
2022/10/10 10:30:23;0.00;0.00;0.62;0.00;0.00;0.62;2.23;1.60;;;28.50;26.00;;;;;;2265543;61;20392;-62
2022/10/10 10:33:19;0.00;0.00;0.62;0.00;0.00;0.62;2.87;1.60;;;28.50;26.00;;;;;;2265659;61;20361;-60
2022/10/10 10:36:22;0.00;0.00;0.62;0.00;0.00;0.62;2.80;1.30;;;28.50;26.00;;;;;;2264812;61;20752;-61
2022/10/10 10:39:27;0.00;0.00;0.62;0.00;0.00;0.62;3.33;1.40;;;28.60;26.00;;;;;;2268287;61;20363;-61
2022/10/10 10:42:31;0.00;0.00;0.62;0.00;0.00;0.62;2.47;1.53;;;28.60;26.00;;;;;;2265708;61;20454;-62
2022/10/10 10:45:25;0.00;0.00;0.62;0.00;0.00;0.62;2.50;1.63;;;28.60;25.90;;;;;;2393655;53;20407;-61
2022/10/10 10:48:24;0.00;0.00;0.62;0.00;0.00;0.62;2.77;1.77;;;28.60;25.90;;;;;;2268199;61;20781;-61
2022/10/10 10:51:33;0.00;0.00;0.62;0.00;0.00;0.62;2.63;1.73;;;28.70;25.90;;;;;;2266113;61;20422;-62
2022/10/10 10:54:36;0.00;0.00;0.62;0.00;0.00;0.62;1.73;1.20;;;28.70;25.90;;;;;;2266045;61;20740;-60
2022/10/10 10:57:37;0.00;0.00;0.62;0.00;0.00;0.62;2.57;1.63;;;28.80;26.00;;;;;;2265096;61;20416;-61
2022/10/10 11:00:22;0.00;0.00;0.62;0.00;0.00;0.62;2.00;1.20;;;28.80;26.00;;;;;;2265267;61;20416;-61
2022/10/10 11:03:24;0.00;0.00;0.62;0.00;0.00;0.62;2.30;1.50;;;28.80;26.00;;;;;;2530386;45;20473;-61
2022/10/10 11:06:24;0.00;0.00;0.62;0.00;0.00;0.62;3.40;1.63;;;28.90;26.00;;;;;;2483886;45;20419;-61
2022/10/10 11:09:15;0.00;0.00;0.62;0.00;0.00;0.62;1.80;1.30;;;28.90;26.00;;;;;;2264971;61;20384;-61